createdAt,value
2024-02-16T00:02:14.396Z,97627.22
2024-02-16T00:04:44.552Z,97630.81
2024-02-16T00:07:13.098Z,97625.53
2024-02-16T00:09:41.447Z,97627.38
2024-02-16T00:12:10.206Z,97629.03
2024-02-16T00:14:38.724Z,97621.22
2024-02-16T00:17:08.242Z,97625.53
2024-02-16T00:19:36.694Z,97620.38
2024-02-16T00:22:08.382Z,97622.34
2024-02-16T00:24:37.554Z,97618.31
2024-02-16T00:27:07.367Z,97622.78
2024-02-16T00:29:35.944Z,97612.34
2024-02-16T00:32:03.378Z,97620.41
2024-02-16T00:34:31.794Z,97614.28
2024-02-16T00:37:00.383Z,97619.56
2024-02-16T00:39:30.839Z,97616.06
2024-02-16T00:42:01.971Z,97617.06
2024-02-16T00:44:30.390Z,97612.91
2024-02-16T00:46:59.682Z,97614.03
2024-02-16T00:49:31.037Z,97607.88
2024-02-16T00:51:59.728Z,97606.38
2024-02-16T00:54:30.154Z,97596.06
2024-02-16T00:57:03.470Z,97601.34
2024-02-16T00:59:35.018Z,97604.13
2024-02-16T01:02:03.556Z,97592.00
2024-02-16T01:04:32.046Z,97599.13
2024-02-16T01:07:00.581Z,97608.00
2024-02-16T01:09:30.480Z,97601.06
2024-02-16T01:11:58.891Z,97609.84
2024-02-16T01:14:27.241Z,97609.00
2024-02-16T01:16:55.571Z,97602.06
2024-02-16T01:19:28.940Z,97605.78
2024-02-16T01:21:58.885Z,97596.34
2024-02-16T01:24:28.020Z,97601.75
2024-02-16T01:26:58.448Z,97599.25
2024-02-16T01:29:27.612Z,97601.19
2024-02-16T01:31:55.906Z,97597.88
2024-02-16T01:34:24.423Z,97602.44
2024-02-16T01:36:53.016Z,97588.53
2024-02-16T01:39:26.605Z,97592.28
2024-02-16T01:41:55.171Z,97588.13
2024-02-16T01:44:25.271Z,97590.91
2024-02-16T01:46:53.865Z,97590.91
2024-02-16T01:49:25.736Z,97593.53
2024-02-16T01:51:54.399Z,97591.84
2024-02-16T01:54:22.993Z,97592.69
2024-02-16T01:56:52.321Z,97585.91
2024-02-16T01:59:20.886Z,97589.34
2024-02-16T02:01:50.595Z,97576.13
2024-02-16T02:04:19.069Z,97584.19
2024-02-16T02:06:47.997Z,97577.97
2024-02-16T02:09:16.640Z,97579.09
2024-02-16T02:11:45.045Z,97573.94
2024-02-16T02:14:13.754Z,97572.38
2024-02-16T02:16:50.956Z,97569.84
2024-02-16T02:19:25.622Z,97567.47
2024-02-16T02:21:54.058Z,97570.38
2024-02-16T02:24:27.149Z,97563.44
2024-02-16T02:26:55.799Z,97565.38
2024-02-16T02:29:24.153Z,97566.50
2024-02-16T02:31:52.398Z,97566.63
2024-02-16T02:34:21.794Z,97568.72
2024-02-16T02:36:50.380Z,97563.69
2024-02-16T02:39:18.694Z,97563.97
2024-02-16T02:41:48.484Z,97558.97
2024-02-16T02:44:22.823Z,97561.88
2024-02-16T02:46:51.322Z,97553.41
2024-02-16T02:49:19.864Z,97557.28
2024-02-16T02:51:48.264Z,97561.03
2024-02-16T02:54:16.663Z,97558.66
2024-02-16T02:56:49.000Z,97560.63
2024-02-16T02:59:17.563Z,97554.63
2024-02-16T03:01:46.689Z,97556.56
2024-02-16T03:04:15.171Z,97553.25
2024-02-16T03:06:43.759Z,97553.38
2024-02-16T03:09:13.862Z,97556.16
2024-02-16T03:11:45.295Z,97557.22
2024-02-16T03:14:15.108Z,97562.66
2024-02-16T03:16:43.452Z,97562.78
2024-02-16T03:19:19.330Z,97558.63
2024-02-16T03:21:49.865Z,97566.53
2024-02-16T03:24:18.413Z,97565.81
2024-02-16T03:26:46.897Z,97575.69
2024-02-16T03:29:16.767Z,97571.50
2024-02-16T03:31:45.290Z,97561.06
2024-02-16T03:34:14.017Z,97560.41
2024-02-16T03:36:42.630Z,97561.34
2024-02-16T03:39:11.150Z,97567.88
2024-02-16T03:41:39.633Z,97556.59
2024-02-16T03:44:08.083Z,97547.16
2024-02-16T03:46:44.381Z,97549.06
2024-02-16T03:49:13.411Z,97557.13
2024-02-16T03:51:41.946Z,97562.66
2024-02-16T03:54:10.399Z,97561.00
2024-02-16T03:56:38.853Z,97554.19
2024-02-16T03:59:08.898Z,97556.97
2024-02-16T04:01:40.173Z,97553.63
2024-02-16T04:04:08.514Z,97558.22
2024-02-16T04:06:37.653Z,97563.50
2024-02-16T04:09:07.297Z,97556.53
2024-02-16T04:11:36.462Z,97565.41
2024-02-16T04:14:05.151Z,97571.69
2024-02-16T04:16:33.561Z,97574.59
2024-02-16T04:19:03.469Z,97578.16
2024-02-16T04:21:32.028Z,97579.13
2024-02-16T04:24:00.505Z,97584.28
2024-02-16T04:26:29.311Z,97587.91
2024-02-16T04:28:57.737Z,97587.78
2024-02-16T04:31:26.143Z,97593.72
2024-02-16T04:33:55.180Z,97596.38
2024-02-16T04:36:25.067Z,97601.66
2024-02-16T04:38:53.576Z,97608.63
2024-02-16T04:41:22.769Z,97608.63
2024-02-16T04:43:51.383Z,97606.94
2024-02-16T04:46:22.444Z,97601.78
2024-02-16T04:48:51.003Z,97594.00
2024-02-16T04:51:19.393Z,97597.59
2024-02-16T04:53:49.515Z,97600.25
2024-02-16T04:56:17.827Z,97599.41
2024-02-16T04:58:46.262Z,97588.03
2024-02-16T05:01:15.889Z,97588.16
2024-02-16T05:03:44.337Z,97593.44
2024-02-16T05:06:13.196Z,97602.16
2024-02-16T05:08:41.689Z,97599.41
2024-02-16T05:11:11.420Z,97595.94
2024-02-16T05:13:40.585Z,97600.38
2024-02-16T05:16:10.362Z,97601.22
2024-02-16T05:18:39.264Z,97602.88
2024-02-16T05:21:08.505Z,97602.88
2024-02-16T05:23:37.157Z,97617.75
2024-02-16T05:26:06.424Z,97617.75
2024-02-16T05:28:36.435Z,97612.47
2024-02-16T05:31:16.910Z,97616.22
2024-02-16T05:33:50.616Z,97606.63
2024-02-16T05:36:21.701Z,97605.78
2024-02-16T05:38:50.631Z,97605.78
2024-02-16T05:41:20.173Z,97606.75
2024-02-16T05:43:50.731Z,97600.63
2024-02-16T05:46:20.107Z,97601.50
2024-02-16T05:48:48.500Z,97609.41
2024-02-16T05:51:16.960Z,97618.13
2024-02-16T05:53:46.605Z,97608.44
2024-02-16T05:56:14.953Z,97603.28
2024-02-16T05:58:43.251Z,97596.34
2024-02-16T06:01:14.043Z,97606.19
2024-02-16T06:03:44.119Z,97607.03
2024-02-16T06:06:12.599Z,97613.25
2024-02-16T06:08:41.571Z,97612.31
2024-02-16T06:11:10.139Z,97613.25
2024-02-16T06:13:38.602Z,97619.38
2024-02-16T06:16:09.631Z,97618.38
2024-02-16T06:18:40.031Z,97623.66
2024-02-16T06:21:08.602Z,97627.28
2024-02-16T06:23:36.969Z,97626.44
2024-02-16T06:26:05.546Z,97633.41
2024-02-16T06:28:33.858Z,97637.72
2024-02-16T06:31:02.284Z,97641.19
2024-02-16T06:33:30.788Z,97648.13
2024-02-16T06:36:00.606Z,97654.38
2024-02-16T06:38:28.915Z,97657.03
2024-02-16T06:40:57.232Z,97651.88
2024-02-16T06:43:25.580Z,97649.38
2024-02-16T06:45:56.365Z,97655.59
2024-02-16T06:48:24.940Z,97659.31
2024-02-16T06:50:54.830Z,97661.13
2024-02-16T06:53:24.785Z,97659.47
2024-02-16T06:55:53.111Z,97668.22
2024-02-16T06:58:21.381Z,97662.09
2024-02-16T07:00:53.731Z,97666.53
2024-02-16T07:03:22.422Z,97655.03
2024-02-16T07:05:50.857Z,97658.47
2024-02-16T07:08:19.421Z,97661.97
2024-02-16T07:10:49.870Z,97652.13
2024-02-16T07:13:18.667Z,97663.25
2024-02-16T07:15:47.266Z,97661.91
2024-02-16T07:18:15.866Z,97663.06
2024-02-16T07:20:44.266Z,97671.03
2024-02-16T07:23:13.381Z,97672.06
2024-02-16T07:25:41.763Z,97665.16
2024-02-16T07:28:11.732Z,97661.72
2024-02-16T07:30:43.461Z,97661.66
2024-02-16T07:33:12.616Z,97665.69
2024-02-16T07:35:41.017Z,97661.84
2024-02-16T07:38:09.320Z,97658.31
2024-02-16T07:40:37.687Z,97657.00
2024-02-16T07:43:06.641Z,97652.72
2024-02-16T07:45:36.646Z,97656.19
2024-02-16T07:48:06.872Z,97650.06
2024-02-16T07:50:35.668Z,97653.25
2024-02-16T07:53:04.057Z,97652.25
2024-02-16T07:55:32.392Z,97659.34
2024-02-16T07:58:01.233Z,97658.50
2024-02-16T08:00:30.371Z,97662.22
2024-02-16T08:03:00.284Z,97668.78
2024-02-16T08:05:28.948Z,97667.38
2024-02-16T08:07:57.508Z,97665.81
2024-02-16T08:10:26.848Z,97674.22
2024-02-16T08:12:57.874Z,97676.44
2024-02-16T08:15:27.108Z,97671.50
2024-02-16T08:17:56.106Z,97679.03
2024-02-16T08:20:26.015Z,97681.09
2024-02-16T08:22:55.261Z,97685.16
2024-02-16T08:25:23.612Z,97691.53
2024-02-16T08:27:52.088Z,97692.91
2024-02-16T08:30:23.788Z,97687.00
2024-02-16T08:32:52.398Z,97686.56
2024-02-16T08:35:21.291Z,97688.63
2024-02-16T08:37:51.034Z,97692.38
2024-02-16T08:40:19.452Z,97700.56
2024-02-16T08:42:48.605Z,97704.31
2024-02-16T08:45:18.770Z,97707.34
2024-02-16T08:47:50.487Z,97702.31
2024-02-16T08:50:21.378Z,97706.16
2024-02-16T08:52:51.268Z,97709.06
2024-02-16T08:55:19.658Z,97702.31
2024-02-16T08:57:48.102Z,97700.03
2024-02-16T09:00:18.058Z,97705.75
2024-02-16T09:02:47.610Z,97708.94
2024-02-16T09:05:16.070Z,97715.47
2024-02-16T09:07:44.425Z,97713.91
2024-02-16T09:10:15.834Z,97713.75
2024-02-16T09:12:44.378Z,97709.66
2024-02-16T09:15:13.181Z,97711.19
2024-02-16T09:17:41.745Z,97713.53
2024-02-16T09:20:13.125Z,97707.78
2024-02-16T09:22:47.055Z,97702.16
2024-02-16T09:25:17.639Z,97703.50
2024-02-16T09:27:46.718Z,97711.16
2024-02-16T09:30:16.420Z,97702.91
2024-02-16T09:32:44.914Z,97697.28
2024-02-16T09:35:14.250Z,97704.63
2024-02-16T09:37:42.897Z,97696.91
2024-02-16T09:40:14.816Z,97696.94
2024-02-16T09:42:44.767Z,97695.50
2024-02-16T09:45:17.263Z,97701.19
2024-02-16T09:47:54.392Z,97702.06
2024-02-16T09:50:29.706Z,97712.06
2024-02-16T09:52:59.962Z,97703.31
2024-02-16T09:55:34.643Z,97710.34
2024-02-16T09:58:06.251Z,97713.91
2024-02-16T10:00:34.796Z,97711.31
2024-02-16T10:03:03.329Z,97724.97
2024-02-16T10:05:32.571Z,97723.19
2024-02-16T10:08:00.930Z,97714.25
2024-02-16T10:10:32.922Z,97709.97
2024-02-16T10:13:06.364Z,97721.16
2024-02-16T10:15:35.427Z,97715.91
2024-02-16T10:18:05.538Z,97714.28
2024-02-16T10:20:36.844Z,97708.16
2024-02-16T10:23:10.270Z,97703.25
2024-02-16T10:25:40.503Z,97701.56
2024-02-16T10:28:13.621Z,97703.16
2024-02-16T10:30:45.266Z,97705.13
2024-02-16T10:33:15.007Z,97708.16
2024-02-16T10:35:45.482Z,97693.31
2024-02-16T10:38:15.024Z,97690.34
2024-02-16T10:40:45.823Z,97694.97
2024-02-16T10:43:17.951Z,97689.25
2024-02-16T10:45:48.543Z,97679.31
2024-02-16T10:48:18.032Z,97690.81
2024-02-16T10:50:47.004Z,97691.53
2024-02-16T10:53:20.846Z,97684.13
2024-02-16T10:55:49.562Z,97674.88
2024-02-16T10:58:19.888Z,97681.88
2024-02-16T11:00:53.338Z,97677.97
2024-02-16T11:03:26.862Z,97680.78
2024-02-16T11:05:56.426Z,97676.94
2024-02-16T11:08:29.044Z,97687.13
2024-02-16T11:10:59.187Z,97683.31
2024-02-16T11:13:30.482Z,97679.06
2024-02-16T11:16:03.799Z,97678.47
2024-02-16T11:18:33.411Z,97674.22
2024-02-16T11:21:06.707Z,97674.66
2024-02-16T11:23:37.549Z,97671.56
2024-02-16T11:26:10.242Z,97666.66
2024-02-16T11:28:42.374Z,97671.81
2024-02-16T11:31:11.407Z,97662.91
2024-02-16T11:33:46.503Z,97669.13
2024-02-16T11:36:15.483Z,97669.97
2024-02-16T11:38:44.156Z,97666.44
2024-02-16T11:41:12.673Z,97660.25
2024-02-16T11:43:43.127Z,97662.13
2024-02-16T11:46:18.837Z,97670.16
2024-02-16T11:48:49.345Z,97656.94
2024-02-16T11:51:19.373Z,97650.72
2024-02-16T11:53:57.736Z,97656.69
2024-02-16T11:56:26.710Z,97660.22
2024-02-16T11:58:57.073Z,97645.34
2024-02-16T12:01:25.982Z,97642.16
2024-02-16T12:03:54.481Z,97648.56
2024-02-16T12:06:26.909Z,97644.22
2024-02-16T12:08:55.533Z,97645.88
2024-02-16T12:11:25.957Z,97642.38
2024-02-16T12:13:56.943Z,97634.31
2024-02-16T12:16:27.821Z,97636.16
2024-02-16T12:19:06.249Z,97635.34
2024-02-16T12:21:34.884Z,97633.28
2024-02-16T12:24:03.474Z,97634.97
2024-02-16T12:26:31.800Z,97634.81
2024-02-16T12:29:01.891Z,97636.25
2024-02-16T12:31:30.656Z,97643.28
2024-02-16T12:33:59.367Z,97638.34
2024-02-16T12:36:28.366Z,97639.63
2024-02-16T12:38:56.860Z,97640.25
2024-02-16T12:41:25.236Z,97639.03
2024-02-16T12:43:54.577Z,97635.97
2024-02-16T12:46:24.264Z,97639.09
2024-02-16T12:48:53.557Z,97644.44
2024-02-16T12:51:22.583Z,97634.97
2024-02-16T12:53:51.049Z,97642.63
2024-02-16T12:56:19.707Z,97644.53
2024-02-16T12:58:48.203Z,97639.84
2024-02-16T13:01:25.718Z,97642.13
2024-02-16T13:03:56.508Z,97641.97
2024-02-16T13:06:28.051Z,97635.81
2024-02-16T13:08:58.056Z,97639.16
2024-02-16T13:11:26.596Z,97641.03
2024-02-16T13:13:55.524Z,97642.56
2024-02-16T13:16:24.044Z,97639.53
2024-02-16T13:18:52.824Z,97635.59
2024-02-16T13:21:22.754Z,97641.66
2024-02-16T13:23:51.400Z,97634.22
2024-02-16T13:26:19.805Z,97632.16
2024-02-16T13:28:48.330Z,97624.56
2024-02-16T13:31:17.138Z,97625.41
2024-02-16T13:33:45.686Z,97629.56
2024-02-16T13:36:14.050Z,97634.75
2024-02-16T13:38:43.839Z,97625.44
2024-02-16T13:41:12.200Z,97626.50
2024-02-16T13:43:40.608Z,97624.00
2024-02-16T13:46:09.097Z,97629.81
2024-02-16T13:48:38.870Z,97626.06
2024-02-16T13:51:08.393Z,97626.06
2024-02-16T13:53:38.141Z,97630.84
2024-02-16T13:56:09.730Z,97636.44
2024-02-16T13:58:39.111Z,97629.81
2024-02-16T14:01:07.742Z,97643.88
2024-02-16T14:03:37.957Z,97638.28
2024-02-16T14:06:09.152Z,97634.75
2024-02-16T14:08:37.673Z,97630.38
2024-02-16T14:11:07.752Z,97642.13
2024-02-16T14:13:36.078Z,97635.72
2024-02-16T14:16:04.528Z,97633.03
2024-02-16T14:18:35.493Z,97643.75
2024-02-16T14:21:05.754Z,97644.38
2024-02-16T14:23:34.582Z,97648.50
2024-02-16T14:26:03.206Z,97654.47
2024-02-16T14:28:32.951Z,97651.34
2024-02-16T14:31:01.572Z,97653.59
2024-02-16T14:33:34.274Z,97647.81
2024-02-16T14:36:04.466Z,97650.28
2024-02-16T14:38:33.228Z,97654.00
2024-02-16T14:41:05.083Z,97658.13
2024-02-16T14:43:35.460Z,97656.66
2024-02-16T14:46:05.372Z,97661.41
2024-02-16T14:48:34.191Z,97654.56
2024-02-16T14:51:03.418Z,97658.50
2024-02-16T14:53:33.999Z,97665.72
2024-02-16T14:56:04.298Z,97663.63
2024-02-16T14:58:34.312Z,97661.28
2024-02-16T15:01:02.857Z,97661.09
2024-02-16T15:03:31.919Z,97662.09
2024-02-16T15:06:00.483Z,97661.47
2024-02-16T15:08:29.199Z,97665.16
2024-02-16T15:10:57.579Z,97669.94
2024-02-16T15:13:27.016Z,97663.09
2024-02-16T15:15:56.736Z,97663.28
2024-02-16T15:18:25.499Z,97669.03
2024-02-16T15:20:55.472Z,97671.94
2024-02-16T15:23:24.891Z,97667.34
2024-02-16T15:25:53.336Z,97674.97
2024-02-16T15:28:21.881Z,97668.16
2024-02-16T15:30:50.258Z,97669.75
2024-02-16T15:33:20.473Z,97685.63
2024-02-16T15:35:48.882Z,97681.88
2024-02-16T15:38:17.314Z,97682.44
2024-02-16T15:40:45.780Z,97690.69
2024-02-16T15:43:14.250Z,97686.75
2024-02-16T15:45:43.363Z,97687.53
2024-02-16T15:48:13.422Z,97687.91
2024-02-16T15:50:43.890Z,97687.66
2024-02-16T15:53:12.730Z,97697.13
2024-02-16T15:55:43.572Z,97699.53
2024-02-16T15:58:12.241Z,97695.75
2024-02-16T16:00:41.040Z,97700.69
2024-02-16T16:03:10.842Z,97703.13
2024-02-16T16:05:39.883Z,97698.31
2024-02-16T16:08:10.001Z,97703.44
2024-02-16T16:10:38.529Z,97705.69
2024-02-16T16:13:08.597Z,97711.81
2024-02-16T16:15:36.950Z,97711.34
2024-02-16T16:18:06.473Z,97714.59
2024-02-16T16:20:34.918Z,97715.34
2024-02-16T16:23:03.844Z,97725.84
2024-02-16T16:25:33.574Z,97730.06
2024-02-16T16:28:01.988Z,97732.69
2024-02-16T16:30:30.785Z,97736.13
2024-02-16T16:32:59.333Z,97744.91
2024-02-16T16:35:33.400Z,97740.47
2024-02-16T16:38:02.383Z,97743.03
2024-02-16T16:40:30.852Z,97743.97
2024-02-16T16:43:00.592Z,97742.03
2024-02-16T16:45:30.381Z,97743.59
2024-02-16T16:48:01.610Z,97751.34
2024-02-16T16:50:32.004Z,97749.59
2024-02-16T16:53:00.580Z,97751.34
2024-02-16T16:55:29.226Z,97757.44
2024-02-16T16:57:58.880Z,97768.25
2024-02-16T17:00:27.522Z,97775.97
2024-02-16T17:02:57.043Z,97774.03
2024-02-16T17:05:25.336Z,97772.94
2024-02-16T17:07:54.288Z,97777.97
2024-02-16T17:10:22.923Z,97781.16
2024-02-16T17:12:51.443Z,97789.72
2024-02-16T17:15:21.459Z,97788.59
2024-02-16T17:17:53.063Z,97799.84
2024-02-16T17:20:25.611Z,97803.22
2024-02-16T17:22:55.761Z,97809.13
2024-02-16T17:25:25.506Z,97815.19
2024-02-16T17:27:54.219Z,97824.41
2024-02-16T17:30:24.288Z,97815.22
2024-02-16T17:32:52.915Z,97828.13
2024-02-16T17:35:21.525Z,97824.13
2024-02-16T17:37:54.094Z,97824.47
2024-02-16T17:40:22.652Z,97828.69
2024-02-16T17:42:51.078Z,97838.25
2024-02-16T17:45:20.126Z,97834.44
2024-02-16T17:47:49.995Z,97846.31
2024-02-16T17:50:19.209Z,97846.66
2024-02-16T17:52:47.655Z,97853.53
2024-02-16T17:55:16.191Z,97847.88
2024-02-16T17:57:44.753Z,97853.69
2024-02-16T18:00:17.459Z,97855.06
2024-02-16T18:02:48.301Z,97859.09
2024-02-16T18:05:19.573Z,97868.44
2024-02-16T18:07:48.523Z,97866.09
2024-02-16T18:10:17.710Z,97867.63
2024-02-16T18:12:46.095Z,97873.31
2024-02-16T18:15:14.717Z,97876.50
2024-02-16T18:17:43.466Z,97882.34
2024-02-16T18:20:14.624Z,97881.03
2024-02-16T18:22:44.339Z,97880.53
2024-02-16T18:25:12.629Z,97890.56
2024-02-16T18:27:41.101Z,97885.56
2024-02-16T18:30:11.597Z,97879.72
2024-02-16T18:32:40.061Z,97874.88
2024-02-16T18:35:09.394Z,97878.06
2024-02-16T18:37:37.922Z,97895.25
2024-02-16T18:40:10.741Z,97887.91
2024-02-16T18:42:39.633Z,97894.44
2024-02-16T18:45:10.343Z,97891.44
2024-02-16T18:47:39.993Z,97893.59
2024-02-16T18:50:10.875Z,97898.28
2024-02-16T18:52:39.530Z,97904.75
2024-02-16T18:55:10.194Z,97904.28
2024-02-16T18:57:38.814Z,97908.09
2024-02-16T19:00:09.850Z,97910.28
2024-02-16T19:02:43.089Z,97907.91
2024-02-16T19:05:12.028Z,97907.56
2024-02-16T19:07:40.400Z,97908.75
2024-02-16T19:10:12.095Z,97904.72
2024-02-16T19:12:40.668Z,97914.75
2024-02-16T19:15:11.009Z,97916.06
2024-02-16T19:17:39.550Z,97915.41
2024-02-16T19:20:09.429Z,97920.22
2024-02-16T19:22:37.874Z,97926.72
2024-02-16T19:25:07.641Z,97923.38
2024-02-16T19:27:37.440Z,97927.38
2024-02-16T19:30:07.832Z,97926.84
2024-02-16T19:32:36.353Z,97923.53
2024-02-16T19:35:06.430Z,97927.34
2024-02-16T19:37:35.115Z,97922.50
2024-02-16T19:40:03.436Z,97936.00
2024-02-16T19:42:31.799Z,97929.31
2024-02-16T19:45:01.633Z,97937.63
2024-02-16T19:47:30.361Z,97928.16
2024-02-16T19:49:58.708Z,97933.63
2024-02-16T19:52:27.219Z,97930.63
2024-02-16T19:54:59.023Z,97938.13
2024-02-16T19:57:27.972Z,97954.28
2024-02-16T19:59:56.718Z,97945.75
2024-02-16T20:02:26.537Z,97957.56
2024-02-16T20:05:03.116Z,97963.88
2024-02-16T20:07:37.805Z,97955.72
2024-02-16T20:10:09.378Z,97960.34
2024-02-16T20:12:37.822Z,97965.16
2024-02-16T20:15:07.254Z,97965.31
2024-02-16T20:17:37.564Z,97959.66
2024-02-16T20:20:07.428Z,97965.28
2024-02-16T20:22:35.950Z,97971.88
2024-02-16T20:25:08.276Z,97968.56
2024-02-16T20:27:37.883Z,97976.84
2024-02-16T20:30:08.534Z,97978.84
2024-02-16T20:32:40.395Z,97987.13
2024-02-16T20:35:10.542Z,97987.28
2024-02-16T20:37:39.009Z,97992.94
2024-02-16T20:40:09.451Z,97995.09
2024-02-16T20:42:39.547Z,98002.38
2024-02-16T20:45:08.942Z,98002.84
2024-02-16T20:47:40.909Z,97996.84
2024-02-16T20:50:11.107Z,98001.81
2024-02-16T20:52:39.565Z,97997.78
2024-02-16T20:55:09.210Z,97997.13
2024-02-16T20:57:37.578Z,97997.28
2024-02-16T21:00:09.746Z,98006.38
2024-02-16T21:02:40.191Z,98003.88
2024-02-16T21:05:09.720Z,98005.88
2024-02-16T21:07:38.209Z,98010.34
2024-02-16T21:10:07.793Z,98007.84
2024-02-16T21:12:36.109Z,98014.97
2024-02-16T21:15:05.242Z,98016.81
2024-02-16T21:17:33.583Z,98023.13
2024-02-16T21:20:03.948Z,98015.44
2024-02-16T21:22:34.800Z,98020.75
2024-02-16T21:25:09.016Z,98028.75
2024-02-16T21:27:37.368Z,98025.44
2024-02-16T21:30:07.512Z,98026.41
2024-02-16T21:32:35.921Z,98022.91
2024-02-16T21:35:07.077Z,98025.56
2024-02-16T21:37:36.302Z,98029.06
2024-02-16T21:40:05.048Z,98027.41
2024-02-16T21:42:33.375Z,98029.25
2024-02-16T21:45:01.889Z,98037.22
2024-02-16T21:47:30.291Z,98037.22
2024-02-16T21:49:58.734Z,98041.69
2024-02-16T21:52:28.412Z,98045.22
2024-02-16T21:54:56.879Z,98040.03
2024-02-16T21:57:25.384Z,98042.69
2024-02-16T21:59:53.929Z,98044.50
2024-02-16T22:02:22.296Z,98048.84
2024-02-16T22:04:52.067Z,98052.50
2024-02-16T22:07:20.604Z,98050.69
2024-02-16T22:09:50.457Z,98053.34
2024-02-16T22:12:20.564Z,98052.50
2024-02-16T22:14:48.937Z,98050.69
2024-02-16T22:17:17.282Z,98054.16
2024-02-16T22:19:45.725Z,98056.81
2024-02-16T22:22:15.733Z,98059.47
2024-02-16T22:24:44.443Z,98053.34
2024-02-16T22:27:14.229Z,98056.00
2024-02-16T22:29:42.506Z,98067.47
2024-02-16T22:32:17.148Z,98064.97
2024-02-16T22:34:47.234Z,98067.63
2024-02-16T22:37:15.665Z,98066.81
2024-02-16T22:39:44.033Z,98071.28
2024-02-16T22:42:13.822Z,98067.91
2024-02-16T22:44:42.457Z,98070.59
2024-02-16T22:47:10.764Z,98075.91
2024-02-16T22:49:39.273Z,98078.56
2024-02-16T22:52:08.021Z,98076.91
2024-02-16T22:54:36.574Z,98079.72
2024-02-16T22:57:05.275Z,98085.88
2024-02-16T22:59:35.084Z,98081.53
2024-02-16T23:02:03.440Z,98080.72
2024-02-16T23:04:31.842Z,98093.03
2024-02-16T23:07:00.378Z,98088.69
2024-02-16T23:09:28.867Z,98095.84
2024-02-16T23:11:57.246Z,98098.50
2024-02-16T23:14:28.513Z,98105.63
2024-02-16T23:16:58.312Z,98104.13
2024-02-16T23:19:27.104Z,98114.75
2024-02-16T23:21:56.358Z,98106.09
2024-02-16T23:24:24.770Z,98111.56
2024-02-16T23:26:53.586Z,98109.75
2024-02-16T23:29:26.259Z,98108.88
2024-02-16T23:31:55.558Z,98111.69
2024-02-16T23:34:25.305Z,98111.84
2024-02-16T23:36:53.673Z,98116.22
2024-02-16T23:39:27.386Z,98118.03
2024-02-16T23:41:55.788Z,98119.84
2024-02-16T23:44:24.144Z,98114.50
2024-02-16T23:46:54.001Z,98119.84
2024-02-16T23:49:36.065Z,98122.66
2024-02-16T23:52:05.019Z,98124.34
2024-02-16T23:54:33.395Z,98119.03
2024-02-16T23:57:02.211Z,98126.84
2024-02-16T23:59:30.648Z,98125.84
